sensor_id;sensor_type;location;lat;lon;timestamp;P1;durP1;ratioP1;P2;durP2;ratioP2
25984;SDS011;66753;53.848;10.658;2024-01-06T00:11:59;4.80;;;1.93;;
25984;SDS011;66753;53.848;10.658;2024-01-06T00:27:02;5.07;;;2.10;;
25984;SDS011;66753;53.848;10.658;2024-01-06T00:42:04;5.70;;;2.40;;
25984;SDS011;66753;53.848;10.658;2024-01-06T00:57:06;5.70;;;2.17;;
25984;SDS011;66753;53.848;10.658;2024-01-06T01:12:08;7.60;;;2.33;;
25984;SDS011;66753;53.848;10.658;2024-01-06T01:27:09;5.10;;;2.40;;
25984;SDS011;66753;53.848;10.658;2024-01-06T01:42:11;6.20;;;2.80;;
25984;SDS011;66753;53.848;10.658;2024-01-06T01:57:13;5.43;;;2.43;;
25984;SDS011;66753;53.848;10.658;2024-01-06T02:12:16;6.37;;;2.93;;
25984;SDS011;66753;53.848;10.658;2024-01-06T02:27:18;4.40;;;2.63;;
25984;SDS011;66753;53.848;10.658;2024-01-06T02:42:19;6.87;;;2.87;;
25984;SDS011;66753;53.848;10.658;2024-01-06T02:57:21;5.50;;;2.70;;
25984;SDS011;66753;53.848;10.658;2024-01-06T03:12:23;9.23;;;3.20;;
25984;SDS011;66753;53.848;10.658;2024-01-06T03:27:25;5.83;;;3.00;;
25984;SDS011;66753;53.848;10.658;2024-01-06T03:42:26;7.50;;;3.60;;
25984;SDS011;66753;53.848;10.658;2024-01-06T03:57:28;5.40;;;2.37;;
25984;SDS011;66753;53.848;10.658;2024-01-06T04:12:30;5.53;;;3.00;;
25984;SDS011;66753;53.848;10.658;2024-01-06T04:27:31;6.93;;;3.07;;
25984;SDS011;66753;53.848;10.658;2024-01-06T04:42:34;8.00;;;3.30;;
25984;SDS011;66753;53.848;10.658;2024-01-06T04:57:39;6.73;;;2.83;;
25984;SDS011;66753;53.848;10.658;2024-01-06T05:12:40;8.83;;;4.23;;
25984;SDS011;66753;53.848;10.658;2024-01-06T05:27:41;6.03;;;2.50;;
25984;SDS011;66753;53.848;10.658;2024-01-06T05:42:42;5.73;;;2.53;;
25984;SDS011;66753;53.848;10.658;2024-01-06T05:57:44;7.67;;;2.73;;
25984;SDS011;66753;53.848;10.658;2024-01-06T06:12:45;6.43;;;3.13;;
25984;SDS011;66753;53.848;10.658;2024-01-06T06:27:47;6.67;;;2.77;;
25984;SDS011;66753;53.848;10.658;2024-01-06T06:42:48;4.53;;;2.10;;
25984;SDS011;66753;53.848;10.658;2024-01-06T06:57:50;7.77;;;2.53;;
25984;SDS011;66753;53.848;10.658;2024-01-06T07:12:52;4.43;;;1.57;;
25984;SDS011;66753;53.848;10.658;2024-01-06T07:27:53;4.30;;;2.10;;
25984;SDS011;66753;53.848;10.658;2024-01-06T07:42:55;5.20;;;2.93;;
25984;SDS011;66753;53.848;10.658;2024-01-06T07:57:56;4.57;;;1.73;;
25984;SDS011;66753;53.848;10.658;2024-01-06T08:12:57;8.03;;;3.17;;
25984;SDS011;66753;53.848;10.658;2024-01-06T08:27:59;8.50;;;2.50;;
25984;SDS011;66753;53.848;10.658;2024-01-06T08:43:00;4.83;;;2.07;;
25984;SDS011;66753;53.848;10.658;2024-01-06T09:13:04;7.53;;;2.70;;
25984;SDS011;66753;53.848;10.658;2024-01-06T09:43:07;5.50;;;1.97;;
25984;SDS011;66753;53.848;10.658;2024-01-06T09:58:09;3.97;;;1.90;;
25984;SDS011;66753;53.848;10.658;2024-01-06T10:13:11;5.63;;;1.80;;
25984;SDS011;66753;53.848;10.658;2024-01-06T10:28:20;3.27;;;1.20;;
25984;SDS011;66753;53.848;10.658;2024-01-06T10:43:26;3.20;;;1.23;;
25984;SDS011;66753;53.848;10.658;2024-01-06T10:58:30;2.07;;;1.10;;
25984;SDS011;66753;53.848;10.658;2024-01-06T11:13:34;1.83;;;0.70;;
25984;SDS011;66753;53.848;10.658;2024-01-06T11:28:43;2.90;;;1.27;;
25984;SDS011;66753;53.848;10.658;2024-01-06T11:43:48;4.67;;;1.27;;
25984;SDS011;66753;53.848;10.658;2024-01-06T11:58:50;2.47;;;1.00;;
25984;SDS011;66753;53.848;10.658;2024-01-06T12:13:51;2.20;;;0.80;;
25984;SDS011;66753;53.848;10.658;2024-01-06T12:28:52;3.33;;;1.23;;
25984;SDS011;66753;53.848;10.658;2024-01-06T12:43:55;3.20;;;1.63;;
25984;SDS011;66753;53.848;10.658;2024-01-06T12:58:57;3.67;;;1.30;;
25984;SDS011;66753;53.848;10.658;2024-01-06T13:13:58;5.07;;;1.50;;
25984;SDS011;66753;53.848;10.658;2024-01-06T13:29:00;2.87;;;1.07;;
25984;SDS011;66753;53.848;10.658;2024-01-06T13:44:02;2.60;;;1.10;;
25984;SDS011;66753;53.848;10.658;2024-01-06T13:59:04;4.40;;;1.20;;
25984;SDS011;66753;53.848;10.658;2024-01-06T14:14:06;4.30;;;1.80;;
25984;SDS011;66753;53.848;10.658;2024-01-06T14:29:07;3.53;;;1.67;;
25984;SDS011;66753;53.848;10.658;2024-01-06T14:44:09;3.30;;;1.60;;
25984;SDS011;66753;53.848;10.658;2024-01-06T14:59:10;2.33;;;0.77;;
25984;SDS011;66753;53.848;10.658;2024-01-06T15:14:13;2.50;;;1.40;;
25984;SDS011;66753;53.848;10.658;2024-01-06T15:29:15;3.97;;;1.30;;
25984;SDS011;66753;53.848;10.658;2024-01-06T15:44:17;4.30;;;1.50;;
25984;SDS011;66753;53.848;10.658;2024-01-06T15:59:19;2.53;;;1.27;;
25984;SDS011;66753;53.848;10.658;2024-01-06T16:14:20;2.03;;;1.00;;
25984;SDS011;66753;53.848;10.658;2024-01-06T16:29:22;2.90;;;0.93;;
25984;SDS011;66753;53.848;10.658;2024-01-06T16:44:23;2.20;;;0.70;;
25984;SDS011;66753;53.848;10.658;2024-01-06T16:59:26;2.80;;;0.90;;
25984;SDS011;66753;53.848;10.658;2024-01-06T17:14:28;3.67;;;1.20;;
25984;SDS011;66753;53.848;10.658;2024-01-06T17:29:30;7.80;;;1.50;;
25984;SDS011;66753;53.848;10.658;2024-01-06T17:44:31;7.00;;;2.10;;
25984;SDS011;66753;53.848;10.658;2024-01-06T17:59:34;3.57;;;1.10;;
25984;SDS011;66753;53.848;10.658;2024-01-06T18:14:37;2.63;;;0.83;;
25984;SDS011;66753;53.848;10.658;2024-01-06T18:44:40;1.47;;;0.70;;
25984;SDS011;66753;53.848;10.658;2024-01-06T18:59:43;0.73;;;0.37;;
25984;SDS011;66753;53.848;10.658;2024-01-06T19:14:45;2.60;;;0.70;;
25984;SDS011;66753;53.848;10.658;2024-01-06T19:29:46;3.00;;;0.80;;
25984;SDS011;66753;53.848;10.658;2024-01-06T19:44:48;4.47;;;0.90;;
25984;SDS011;66753;53.848;10.658;2024-01-06T19:59:50;1.33;;;0.53;;
25984;SDS011;66753;53.848;10.658;2024-01-06T20:14:52;2.07;;;1.00;;
25984;SDS011;66753;53.848;10.658;2024-01-06T20:29:56;2.33;;;0.77;;
25984;SDS011;66753;53.848;10.658;2024-01-06T20:44:58;2.40;;;0.90;;
25984;SDS011;66753;53.848;10.658;2024-01-06T21:00:00;3.20;;;1.13;;
25984;SDS011;66753;53.848;10.658;2024-01-06T21:15:05;2.13;;;0.60;;
25984;SDS011;66753;53.848;10.658;2024-01-06T21:30:07;3.63;;;1.40;;
25984;SDS011;66753;53.848;10.658;2024-01-06T21:45:10;2.63;;;0.63;;
25984;SDS011;66753;53.848;10.658;2024-01-06T22:00:12;2.73;;;1.23;;
25984;SDS011;66753;53.848;10.658;2024-01-06T22:15:19;1.50;;;0.40;;
25984;SDS011;66753;53.848;10.658;2024-01-06T22:30:20;3.40;;;0.77;;
25984;SDS011;66753;53.848;10.658;2024-01-06T22:45:22;5.13;;;1.30;;
25984;SDS011;66753;53.848;10.658;2024-01-06T23:00:25;1.60;;;0.70;;
25984;SDS011;66753;53.848;10.658;2024-01-06T23:15:29;2.63;;;0.60;;
25984;SDS011;66753;53.848;10.658;2024-01-06T23:30:30;2.70;;;0.60;;
25984;SDS011;66753;53.848;10.658;2024-01-06T23:45:32;0.77;;;0.40;;
